This is the latest recevied weather packets stored in our database for station/object FW7644. If no packets are shown the sender has not sent any weather packets the latest 10 day(s).
| Time | Temp. | Humidity | Pressure | Rain* | Wind** | Luminosity | Snow |
|---|---|---|---|---|---|---|---|
| 1778098151 | 24.44° C | 69% | 1020.7 hPa | 0 mm | - | - | - |
| 1778097850 | 24.44° C | 69% | 1020.8 hPa | 0 mm | - | - | - |
| 1778097548 | 24.44° C | 69% | 1020.8 hPa | 0 mm | - | - | - |
| 1778097246 | 25° C | 65% | 1020.9 hPa | 0 mm | - | - | - |
| 1778096944 | 26.11° C | 63% | 1020.8 hPa | 0 mm | - | - | - |
| 1778096643 | 25° C | 68% | 1020.9 hPa | 0 mm | - | - | - |
| 1778096341 | 25° C | 66% | 1020.9 hPa | 0 mm | - | - | - |
| 1778096039 | 25.56° C | 66% | 1020.9 hPa | 0 mm | - | - | - |
| 1778095738 | 25.56° C | 64% | 1020.8 hPa | 0 mm | - | - | - |
| 1778095436 | 25.56° C | 63% | 1020.8 hPa | 0 mm | - | - | - |
| 1778095135 | 26.11° C | 62% | 1020.9 hPa | 0 mm | - | - | - |
| 1778094833 | 26.67° C | 60% | 1020.9 hPa | 0 mm | - | - | - |
| 1778094531 | 27.78° C | 55% | 1020.9 hPa | 0 mm | - | - | - |
| 1778094229 | 29.44° C | 50% | 1021 hPa | 0 mm | - | - | - |
| 1778093927 | 29.44° C | 50% | 1021 hPa | 0 mm | - | - | - |
| 1778093626 | 28.89° C | 51% | 1021 hPa | 0 mm | - | - | - |
| 1778093324 | 28.89° C | 51% | 1021 hPa | 0 mm | - | - | - |
| 1778093023 | 31.11° C | 46% | 1021 hPa | 0 mm | - | - | - |
| 1778092721 | 31.67° C | 45% | 1020.9 hPa | 0 mm | - | - | - |
| 1778092419 | 30.56° C | 48% | 1020.9 hPa | 0 mm | - | - | - |
| 1778092117 | 30° C | 51% | 1021 hPa | 0 mm | - | - | - |
| 1778091816 | 27.78° C | 58% | 1021 hPa | 0 mm | - | - | - |
| 1778091514 | 27.78° C | 56% | 1021.1 hPa | 0 mm | - | - | - |
| 1778091212 | 28.33° C | 51% | 1021.1 hPa | 0 mm | - | - | - |
| 1778090911 | 28.33° C | 51% | 1021.2 hPa | 0 mm | - | - | - |
* Rain latest hour (hover to see other rain measurements)
** Current wind speed in m/s (hover to see current wind gust speed)